createdAt,value
2023-05-20T00:01:22.345Z,64.72
2023-05-20T00:03:43.980Z,64.25
2023-05-20T00:06:05.516Z,63.93
2023-05-20T00:08:27.040Z,64.87
2023-05-20T00:10:48.491Z,64.20
2023-05-20T00:13:09.949Z,63.64
2023-05-20T00:15:32.729Z,63.50
2023-05-20T00:17:55.130Z,63.92
2023-05-20T00:20:16.780Z,64.95
2023-05-20T00:22:38.237Z,66.33
2023-05-20T00:24:59.891Z,66.21
2023-05-20T00:27:21.400Z,65.72
2023-05-20T00:29:42.856Z,65.31
2023-05-20T00:32:04.648Z,64.97
2023-05-20T00:34:26.169Z,65.36
2023-05-20T00:36:47.677Z,65.07
2023-05-20T00:39:09.110Z,65.42
2023-05-20T00:41:30.657Z,65.25
2023-05-20T00:43:56.333Z,64.75
2023-05-20T00:46:17.832Z,64.59
2023-05-20T00:48:42.377Z,64.19
2023-05-20T00:51:05.052Z,65.62
2023-05-20T00:53:26.963Z,65.09
2023-05-20T00:55:48.959Z,65.42
2023-05-20T00:58:10.852Z,65.92
2023-05-20T01:00:32.364Z,67.68
2023-05-20T01:02:55.675Z,66.07
2023-05-20T01:05:17.235Z,66.10
2023-05-20T01:07:38.943Z,67.35
2023-05-20T01:10:00.882Z,66.80
2023-05-20T01:12:40.397Z,65.93
2023-05-20T01:15:07.093Z,67.36
2023-05-20T01:17:32.977Z,66.83
2023-05-20T01:19:56.573Z,67.12
2023-05-20T01:22:18.027Z,66.59
2023-05-20T01:24:48.562Z,66.88
2023-05-20T01:27:11.421Z,66.60
2023-05-20T01:29:32.939Z,65.75
2023-05-20T01:31:57.098Z,65.61
2023-05-20T01:34:18.925Z,67.46
2023-05-20T01:36:41.236Z,66.08
2023-05-20T01:39:03.532Z,66.26
2023-05-20T01:41:27.335Z,66.71
2023-05-20T01:43:48.939Z,66.21
2023-05-20T01:46:10.533Z,65.54
2023-05-20T01:48:32.142Z,66.11
2023-05-20T01:50:53.655Z,66.06
2023-05-20T01:53:15.369Z,65.86
2023-05-20T01:55:36.871Z,67.26
2023-05-20T01:57:58.436Z,68.05
2023-05-20T02:00:20.142Z,67.41
2023-05-20T02:02:41.753Z,66.85
2023-05-20T02:05:03.334Z,67.04
2023-05-20T02:07:25.400Z,67.48
2023-05-20T02:09:47.729Z,67.32
2023-05-20T02:12:10.094Z,67.10
2023-05-20T02:14:31.728Z,66.72
2023-05-20T02:16:53.356Z,66.82
2023-05-20T02:19:19.797Z,67.57
2023-05-20T02:21:44.040Z,67.38
2023-05-20T02:24:05.662Z,67.49
2023-05-20T02:26:27.117Z,67.52
2023-05-20T02:28:50.767Z,67.36
2023-05-20T02:31:13.280Z,67.30
2023-05-20T02:33:35.108Z,67.39
2023-05-20T02:35:56.612Z,68.58
2023-05-20T02:38:18.076Z,68.75
2023-05-20T02:40:39.875Z,69.12
2023-05-20T02:43:04.034Z,68.94
2023-05-20T02:45:25.624Z,68.60
2023-05-20T02:47:47.128Z,69.00
2023-05-20T02:50:09.024Z,70.02
2023-05-20T02:52:30.498Z,69.16
2023-05-20T02:54:52.825Z,69.07
2023-05-20T02:57:14.445Z,69.29
2023-05-20T02:59:36.166Z,69.46
2023-05-20T03:01:57.679Z,72.23
2023-05-20T03:04:19.332Z,70.47
2023-05-20T03:06:44.447Z,70.03
2023-05-20T03:09:06.043Z,71.19
2023-05-20T03:11:27.575Z,69.71
2023-05-20T03:13:49.070Z,71.01
2023-05-20T03:16:13.214Z,69.75
2023-05-20T03:18:34.846Z,71.24
2023-05-20T03:20:56.369Z,70.91
2023-05-20T03:23:17.862Z,72.35
2023-05-20T03:25:40.668Z,72.24
2023-05-20T03:28:02.356Z,76.27
2023-05-20T03:30:24.188Z,75.41
2023-05-20T03:32:45.673Z,75.91
2023-05-20T03:35:08.605Z,77.31
2023-05-20T03:37:30.085Z,79.03
2023-05-20T03:39:51.535Z,79.26
2023-05-20T03:42:12.978Z,78.00
2023-05-20T03:44:34.447Z,75.51
2023-05-20T03:46:55.908Z,74.13
2023-05-20T03:49:17.422Z,75.22
2023-05-20T03:51:38.872Z,75.38
2023-05-20T03:54:01.172Z,75.37
2023-05-20T03:56:23.043Z,75.74
2023-05-20T03:58:44.500Z,74.15
2023-05-20T04:01:05.947Z,76.18
2023-05-20T04:03:28.955Z,74.59
2023-05-20T04:05:50.823Z,74.58
2023-05-20T04:08:13.667Z,75.16
2023-05-20T04:10:35.645Z,75.83
2023-05-20T04:12:57.217Z,75.30
2023-05-20T04:15:19.560Z,76.04
2023-05-20T04:17:41.810Z,74.62
2023-05-20T04:20:05.963Z,76.47
2023-05-20T04:22:27.521Z,76.34
2023-05-20T04:24:49.050Z,75.29
2023-05-20T04:27:11.161Z,75.02
2023-05-20T04:29:34.306Z,74.57
2023-05-20T04:31:58.771Z,76.07
2023-05-20T04:34:26.755Z,76.56
2023-05-20T04:36:49.050Z,77.76
2023-05-20T04:39:10.475Z,76.85
2023-05-20T04:41:31.932Z,77.39
2023-05-20T04:43:53.892Z,78.48
2023-05-20T04:46:16.516Z,78.43
2023-05-20T04:48:38.176Z,79.51
2023-05-20T04:50:59.890Z,79.53
2023-05-20T04:53:24.185Z,79.38
2023-05-20T04:55:46.301Z,78.91
2023-05-20T04:58:08.440Z,77.98
2023-05-20T05:00:29.908Z,77.56
2023-05-20T05:02:51.762Z,76.35
2023-05-20T05:05:13.282Z,76.28
2023-05-20T05:07:34.803Z,75.91
2023-05-20T05:09:56.361Z,76.09
2023-05-20T05:12:17.913Z,74.71
2023-05-20T05:14:41.249Z,74.66
2023-05-20T05:17:02.766Z,75.23
2023-05-20T05:19:24.261Z,76.23
2023-05-20T05:21:47.667Z,75.10
2023-05-20T05:24:09.203Z,74.67
2023-05-20T05:26:30.963Z,75.43
2023-05-20T05:28:54.986Z,74.63
2023-05-20T05:31:16.461Z,74.26
2023-05-20T05:33:37.951Z,74.69
2023-05-20T05:36:01.127Z,73.34
2023-05-20T05:38:22.619Z,72.22
2023-05-20T05:40:44.059Z,73.93
2023-05-20T05:43:05.586Z,72.98
2023-05-20T05:45:27.117Z,73.87
2023-05-20T05:47:48.603Z,73.57
2023-05-20T05:50:10.576Z,74.37
2023-05-20T05:52:32.028Z,75.72
2023-05-20T05:54:54.504Z,75.42
2023-05-20T05:57:15.965Z,74.54
2023-05-20T05:59:37.416Z,74.68
2023-05-20T06:01:59.005Z,73.83
2023-05-20T06:04:20.535Z,73.02
2023-05-20T06:06:42.112Z,72.23
2023-05-20T06:09:03.754Z,72.63
2023-05-20T06:11:26.440Z,72.68
2023-05-20T06:13:47.907Z,71.11
2023-05-20T06:16:09.428Z,72.00
2023-05-20T06:18:31.072Z,72.03
2023-05-20T06:20:56.949Z,71.63
2023-05-20T06:23:18.416Z,72.51
2023-05-20T06:25:39.903Z,72.24
2023-05-20T06:28:01.367Z,70.78
2023-05-20T06:30:22.989Z,71.50
2023-05-20T06:32:44.480Z,70.25
2023-05-20T06:35:06.324Z,69.83
2023-05-20T06:37:27.865Z,70.36
2023-05-20T06:39:53.753Z,71.95
2023-05-20T06:42:15.212Z,71.95
2023-05-20T06:44:36.721Z,71.78
2023-05-20T06:46:58.168Z,71.72
2023-05-20T06:49:19.650Z,72.80
2023-05-20T06:51:41.148Z,70.68
2023-05-20T06:54:02.629Z,71.87
2023-05-20T06:56:24.170Z,70.57
2023-05-20T06:58:45.652Z,70.16
2023-05-20T07:01:07.206Z,68.95
2023-05-20T07:03:28.721Z,69.57
2023-05-20T07:05:51.463Z,69.72
2023-05-20T07:08:12.945Z,69.21
2023-05-20T07:10:34.684Z,68.54
2023-05-20T07:12:56.386Z,68.23
2023-05-20T07:15:18.092Z,67.71
2023-05-20T07:17:39.679Z,67.29
2023-05-20T07:20:01.231Z,66.43
2023-05-20T07:22:22.757Z,66.46
2023-05-20T07:24:44.774Z,65.43
2023-05-20T07:27:06.264Z,64.12
2023-05-20T07:29:27.953Z,64.44
2023-05-20T07:31:49.438Z,63.89
2023-05-20T07:34:10.961Z,64.65
2023-05-20T07:36:32.495Z,64.95
2023-05-20T07:39:02.905Z,65.89
2023-05-20T07:41:26.596Z,66.92
2023-05-20T07:43:48.192Z,65.75
2023-05-20T07:46:09.702Z,66.02
2023-05-20T07:48:31.208Z,65.14
2023-05-20T07:50:52.710Z,65.41
2023-05-20T07:53:14.215Z,65.25
2023-05-20T07:55:38.560Z,65.47
2023-05-20T07:58:00.108Z,64.55
2023-05-20T08:00:21.609Z,65.43
2023-05-20T08:02:43.179Z,64.06
2023-05-20T08:05:05.438Z,61.93
2023-05-20T08:07:26.908Z,60.84
2023-05-20T08:09:48.376Z,58.41
2023-05-20T08:12:09.844Z,57.85
2023-05-20T08:14:31.324Z,57.13
2023-05-20T08:16:54.868Z,55.26
2023-05-20T08:19:16.672Z,56.32
2023-05-20T08:21:38.531Z,57.37
2023-05-20T08:24:00.028Z,58.02
2023-05-20T08:26:22.080Z,58.44
2023-05-20T08:28:43.587Z,61.28
2023-05-20T08:31:05.617Z,62.62
2023-05-20T08:33:27.161Z,62.49
2023-05-20T08:35:48.969Z,63.63
2023-05-20T08:38:10.472Z,63.69
2023-05-20T08:40:34.568Z,64.61
2023-05-20T08:42:57.738Z,63.53
2023-05-20T08:45:27.751Z,63.39
2023-05-20T08:47:49.423Z,64.38
2023-05-20T08:50:12.763Z,64.25
2023-05-20T08:52:35.321Z,65.10
2023-05-20T08:54:56.869Z,66.08
2023-05-20T08:57:20.373Z,67.59
2023-05-20T08:59:44.116Z,68.85
2023-05-20T09:02:06.081Z,67.56
2023-05-20T09:04:27.710Z,67.72
2023-05-20T09:06:51.093Z,66.88
2023-05-20T09:09:14.372Z,68.30
2023-05-20T09:11:35.906Z,68.08
2023-05-20T09:13:57.401Z,68.32
2023-05-20T09:16:19.146Z,68.45
2023-05-20T09:18:41.570Z,68.78
2023-05-20T09:21:07.044Z,67.42
2023-05-20T09:23:30.732Z,68.31
2023-05-20T09:25:52.939Z,68.79
2023-05-20T09:28:14.746Z,68.68
2023-05-20T09:30:36.346Z,69.26
2023-05-20T09:33:00.029Z,69.30
2023-05-20T09:35:23.333Z,69.35
2023-05-20T09:37:47.888Z,69.13
2023-05-20T09:40:12.391Z,69.85
2023-05-20T09:42:44.161Z,71.51
2023-05-20T09:45:09.482Z,70.19
2023-05-20T09:47:32.331Z,68.55
2023-05-20T09:49:54.055Z,68.32
2023-05-20T09:52:16.415Z,68.40
2023-05-20T09:54:37.927Z,68.05
2023-05-20T09:57:00.713Z,69.43
2023-05-20T09:59:23.694Z,68.17
2023-05-20T10:01:46.177Z,67.93
2023-05-20T10:04:09.669Z,67.61
2023-05-20T10:07:09.027Z,67.52
2023-05-20T10:09:51.078Z,66.64
2023-05-20T10:12:28.386Z,66.80
2023-05-20T10:15:10.465Z,69.17
2023-05-20T10:18:01.428Z,68.51
2023-05-20T10:20:23.272Z,67.84
2023-05-20T10:23:00.935Z,66.32
2023-05-20T10:25:27.747Z,64.82
2023-05-20T10:27:49.204Z,63.23
2023-05-20T10:30:21.158Z,62.26
2023-05-20T10:32:52.042Z,62.33
2023-05-20T10:35:13.543Z,62.48
2023-05-20T10:37:43.462Z,61.25
2023-05-20T10:40:15.329Z,61.18
2023-05-20T10:42:36.866Z,60.71
2023-05-20T10:44:58.369Z,59.49
2023-05-20T10:47:25.533Z,60.51
2023-05-20T10:49:47.627Z,60.72
2023-05-20T10:52:10.363Z,60.33
2023-05-20T10:54:36.484Z,61.47
2023-05-20T10:56:58.111Z,60.97
2023-05-20T10:59:21.608Z,60.78
2023-05-20T11:01:43.472Z,61.44
2023-05-20T11:04:06.041Z,61.30
2023-05-20T11:06:28.808Z,59.68
2023-05-20T11:08:50.368Z,59.25
2023-05-20T11:11:15.447Z,57.94
2023-05-20T11:13:36.964Z,55.35
2023-05-20T11:15:59.231Z,55.49
2023-05-20T11:18:20.973Z,57.93
2023-05-20T11:20:42.535Z,55.32
2023-05-20T11:23:06.199Z,54.63
2023-05-20T11:25:28.309Z,53.63
2023-05-20T11:27:50.692Z,51.46
2023-05-20T11:30:16.744Z,49.96
2023-05-20T11:32:38.251Z,49.64
2023-05-20T11:34:59.731Z,48.17
2023-05-20T11:37:22.010Z,48.23
2023-05-20T11:39:43.531Z,47.52
2023-05-20T11:42:06.377Z,47.57
2023-05-20T11:44:27.996Z,48.02
2023-05-20T11:46:49.480Z,45.78
2023-05-20T11:49:13.049Z,47.65
2023-05-20T11:51:34.914Z,47.13
2023-05-20T11:54:01.487Z,47.58
2023-05-20T11:56:22.979Z,47.65
2023-05-20T11:58:45.869Z,47.81
2023-05-20T12:01:20.838Z,48.63
2023-05-20T12:03:43.753Z,49.20
2023-05-20T12:06:05.486Z,48.54
2023-05-20T12:08:27.038Z,49.67
2023-05-20T12:10:48.540Z,49.48
2023-05-20T12:13:11.428Z,50.02
2023-05-20T12:15:32.965Z,49.41
2023-05-20T12:17:54.613Z,50.11
2023-05-20T12:20:17.308Z,50.71
2023-05-20T12:22:38.768Z,50.59
2023-05-20T12:25:00.227Z,50.03
2023-05-20T12:27:21.708Z,50.16
2023-05-20T12:29:43.153Z,49.76
2023-05-20T12:32:05.014Z,50.72
2023-05-20T12:34:26.788Z,51.67
2023-05-20T12:36:48.479Z,52.66
2023-05-20T12:39:10.889Z,52.24
2023-05-20T12:41:32.359Z,53.18
2023-05-20T12:43:54.332Z,53.57
2023-05-20T12:46:16.043Z,54.29
2023-05-20T12:48:37.586Z,54.59
2023-05-20T12:51:00.544Z,54.73
2023-05-20T12:53:21.995Z,54.37
2023-05-20T12:55:43.509Z,56.03
2023-05-20T12:58:04.966Z,56.18
2023-05-20T13:00:26.421Z,56.24
2023-05-20T13:02:48.236Z,55.71
2023-05-20T13:05:10.779Z,56.09
2023-05-20T13:07:32.821Z,56.67
2023-05-20T13:09:54.445Z,56.87
2023-05-20T13:12:15.903Z,56.06
2023-05-20T13:14:37.451Z,54.66
2023-05-20T13:16:59.012Z,52.93
2023-05-20T13:19:23.569Z,51.68
2023-05-20T13:21:45.071Z,51.92
2023-05-20T13:24:06.727Z,52.27
2023-05-20T13:26:28.396Z,52.31
2023-05-20T13:28:50.676Z,50.19
2023-05-20T13:31:12.122Z,46.88
2023-05-20T13:33:33.709Z,47.31
2023-05-20T13:35:55.262Z,45.63
2023-05-20T13:38:17.550Z,44.35
2023-05-20T13:40:39.012Z,43.80
2023-05-20T13:43:00.536Z,41.16
2023-05-20T13:45:23.265Z,42.05
2023-05-20T13:47:44.782Z,41.24
2023-05-20T13:50:07.294Z,40.78
2023-05-20T13:52:28.825Z,40.87
2023-05-20T13:54:50.287Z,40.91
2023-05-20T13:57:11.757Z,40.99
2023-05-20T13:59:33.341Z,40.47
2023-05-20T14:01:54.886Z,40.99
2023-05-20T14:04:16.490Z,41.57
2023-05-20T14:06:38.470Z,40.69
2023-05-20T14:08:59.945Z,41.04
2023-05-20T14:11:21.849Z,42.05
2023-05-20T14:13:44.472Z,43.15
2023-05-20T14:16:06.407Z,44.16
2023-05-20T14:18:27.908Z,43.93
2023-05-20T14:20:49.543Z,42.88
2023-05-20T14:23:11.271Z,41.67
2023-05-20T14:25:32.742Z,41.47
2023-05-20T14:27:54.362Z,41.66
2023-05-20T14:30:16.082Z,43.19
2023-05-20T14:32:37.694Z,44.11
2023-05-20T14:35:00.026Z,44.53
2023-05-20T14:37:22.908Z,45.88
2023-05-20T14:39:44.391Z,47.27
2023-05-20T14:42:06.128Z,48.15
2023-05-20T14:44:27.593Z,49.40
2023-05-20T14:46:49.160Z,49.06
2023-05-20T14:49:10.833Z,49.99
2023-05-20T14:51:32.390Z,50.15
2023-05-20T14:53:53.848Z,49.71
2023-05-20T14:56:15.407Z,48.34
2023-05-20T14:58:36.884Z,45.87
2023-05-20T15:00:58.388Z,44.13
2023-05-20T15:03:20.444Z,43.01
2023-05-20T15:05:42.561Z,45.01
2023-05-20T15:08:04.235Z,44.28
2023-05-20T15:10:25.780Z,44.88
2023-05-20T15:12:47.290Z,46.07
2023-05-20T15:15:09.821Z,44.98
2023-05-20T15:17:31.303Z,45.63
2023-05-20T15:19:52.893Z,44.40
2023-05-20T15:22:14.425Z,45.12
2023-05-20T15:24:35.940Z,42.44
2023-05-20T15:26:57.575Z,40.27
2023-05-20T15:29:19.068Z,39.95
2023-05-20T15:31:40.534Z,37.95
2023-05-20T15:34:02.638Z,38.76
2023-05-20T15:36:24.353Z,38.33
2023-05-20T15:38:45.815Z,36.85
2023-05-20T15:41:07.908Z,36.49
2023-05-20T15:43:29.440Z,34.50
2023-05-20T15:45:50.961Z,34.63
2023-05-20T15:48:12.694Z,34.36
2023-05-20T15:50:37.419Z,34.04
2023-05-20T15:52:59.006Z,35.48
2023-05-20T15:55:23.128Z,35.75
2023-05-20T15:57:44.895Z,36.16
2023-05-20T16:00:10.332Z,35.59
2023-05-20T16:02:36.027Z,35.56
2023-05-20T16:04:57.986Z,35.98
2023-05-20T16:07:19.640Z,37.48
2023-05-20T16:09:41.294Z,35.71
2023-05-20T16:12:02.876Z,36.95
2023-05-20T16:14:24.412Z,38.67
2023-05-20T16:16:46.037Z,40.46
2023-05-20T16:19:07.626Z,40.52
2023-05-20T16:21:29.230Z,40.37
2023-05-20T16:23:50.973Z,40.39
2023-05-20T16:26:12.489Z,40.36
2023-05-20T16:28:34.015Z,41.58
2023-05-20T16:30:55.648Z,42.65
2023-05-20T16:33:17.493Z,43.55
2023-05-20T16:35:38.972Z,43.88
2023-05-20T16:38:00.738Z,44.52
2023-05-20T16:40:22.644Z,44.19
2023-05-20T16:42:44.803Z,44.12
2023-05-20T16:45:06.917Z,44.27
2023-05-20T16:47:28.358Z,44.19
2023-05-20T16:49:49.825Z,44.31
2023-05-20T16:52:11.902Z,44.64
2023-05-20T16:54:36.182Z,44.87
2023-05-20T16:56:57.659Z,44.87
2023-05-20T16:59:19.305Z,45.07
2023-05-20T17:01:40.891Z,45.31
2023-05-20T17:04:03.389Z,44.16
2023-05-20T17:06:24.970Z,43.55
2023-05-20T17:08:46.583Z,42.61
2023-05-20T17:11:08.057Z,41.92
2023-05-20T17:13:29.545Z,41.57
2023-05-20T17:15:51.046Z,41.58
2023-05-20T17:18:12.584Z,42.29
2023-05-20T17:20:34.273Z,41.83
2023-05-20T17:22:55.839Z,42.18
2023-05-20T17:25:17.320Z,42.79
2023-05-20T17:27:38.894Z,42.90
2023-05-20T17:30:00.416Z,43.35
2023-05-20T17:32:21.898Z,43.56
2023-05-20T17:34:43.333Z,43.06
2023-05-20T17:37:04.988Z,42.43
2023-05-20T17:39:26.432Z,42.52
2023-05-20T17:41:47.883Z,42.94
2023-05-20T17:44:09.351Z,42.83
2023-05-20T17:46:31.099Z,42.75
2023-05-20T17:48:52.675Z,43.31
2023-05-20T17:51:14.183Z,43.83
2023-05-20T17:53:35.632Z,44.19
2023-05-20T17:55:57.161Z,44.80
2023-05-20T17:58:22.200Z,45.17
2023-05-20T18:00:43.832Z,46.00
2023-05-20T18:03:05.929Z,47.10
2023-05-20T18:05:27.452Z,47.97
2023-05-20T18:07:48.894Z,48.45
2023-05-20T18:10:10.828Z,49.26
2023-05-20T18:12:32.265Z,49.87
2023-05-20T18:14:53.724Z,49.59
2023-05-20T18:17:15.471Z,50.44
2023-05-20T18:19:36.943Z,51.67
2023-05-20T18:21:58.624Z,52.60
2023-05-20T18:24:20.584Z,51.92
2023-05-20T18:26:45.646Z,53.50
2023-05-20T18:29:07.128Z,54.78
2023-05-20T18:31:28.670Z,54.04
2023-05-20T18:33:50.136Z,53.57
2023-05-20T18:36:11.886Z,53.98
2023-05-20T18:38:33.363Z,54.13
2023-05-20T18:40:54.931Z,54.33
2023-05-20T18:43:16.444Z,55.09
2023-05-20T18:45:37.921Z,54.70
2023-05-20T18:48:00.026Z,54.95
2023-05-20T18:50:21.755Z,54.75
2023-05-20T18:52:43.213Z,54.60
2023-05-20T18:55:04.969Z,55.36
2023-05-20T18:57:29.173Z,55.67
2023-05-20T18:59:50.610Z,55.75
2023-05-20T19:02:12.083Z,55.45
2023-05-20T19:04:33.542Z,56.54
2023-05-20T19:06:55.017Z,56.53
2023-05-20T19:09:16.526Z,56.60
2023-05-20T19:11:38.086Z,56.70
2023-05-20T19:13:59.606Z,57.30
2023-05-20T19:16:21.270Z,57.57
2023-05-20T19:18:42.787Z,57.77
2023-05-20T19:21:04.455Z,57.96
2023-05-20T19:23:25.985Z,58.10
2023-05-20T19:25:47.521Z,58.35
2023-05-20T19:28:08.974Z,59.99
2023-05-20T19:30:30.644Z,59.61
2023-05-20T19:32:52.195Z,59.70
2023-05-20T19:35:13.772Z,59.87
2023-05-20T19:37:35.251Z,61.45
2023-05-20T19:39:56.799Z,61.17
2023-05-20T19:42:18.331Z,61.38
2023-05-20T19:44:39.799Z,63.28
2023-05-20T19:47:01.533Z,62.48
2023-05-20T19:49:22.996Z,62.48
2023-05-20T19:51:44.509Z,62.64
2023-05-20T19:54:05.966Z,63.23
2023-05-20T19:56:27.447Z,63.27
2023-05-20T19:58:48.905Z,63.22
2023-05-20T20:01:10.739Z,63.94
2023-05-20T20:03:34.036Z,65.90
2023-05-20T20:05:57.050Z,64.90
2023-05-20T20:08:18.729Z,65.99
2023-05-20T20:10:40.202Z,65.43
2023-05-20T20:13:01.686Z,65.82
2023-05-20T20:15:25.005Z,65.70
2023-05-20T20:17:52.004Z,67.77
2023-05-20T20:20:14.369Z,67.79
2023-05-20T20:22:35.969Z,67.30
2023-05-20T20:24:57.402Z,68.46
2023-05-20T20:27:19.290Z,69.20
2023-05-20T20:29:43.768Z,68.39
2023-05-20T20:32:05.891Z,70.87
2023-05-20T20:34:27.404Z,69.06
2023-05-20T20:36:50.689Z,68.98
2023-05-20T20:39:19.117Z,68.68
2023-05-20T20:41:45.029Z,68.35
2023-05-20T20:44:07.249Z,68.28
2023-05-20T20:46:28.827Z,68.18
2023-05-20T20:48:50.362Z,68.36
2023-05-20T20:51:17.889Z,67.90
2023-05-20T20:53:41.915Z,69.52
2023-05-20T20:56:03.804Z,69.69
2023-05-20T20:58:25.285Z,68.93
2023-05-20T21:00:48.625Z,69.12
2023-05-20T21:03:11.962Z,69.29
2023-05-20T21:05:37.309Z,69.03
2023-05-20T21:07:59.223Z,71.46
2023-05-20T21:10:20.791Z,70.62
2023-05-20T21:12:42.296Z,70.09
2023-05-20T21:15:04.022Z,70.89
2023-05-20T21:17:25.512Z,70.03
2023-05-20T21:19:46.951Z,72.21
2023-05-20T21:22:08.451Z,71.29
2023-05-20T21:24:29.970Z,71.03
2023-05-20T21:26:51.428Z,72.90
2023-05-20T21:29:12.871Z,71.70
2023-05-20T21:31:34.491Z,71.13
2023-05-20T21:33:56.105Z,71.51
2023-05-20T21:36:17.551Z,71.54
2023-05-20T21:38:39.151Z,71.11
2023-05-20T21:41:01.678Z,70.91
2023-05-20T21:43:23.170Z,70.82
2023-05-20T21:45:45.750Z,71.03
2023-05-20T21:48:07.276Z,71.14
2023-05-20T21:50:28.737Z,71.54
2023-05-20T21:52:50.506Z,74.80
2023-05-20T21:55:12.161Z,73.63
2023-05-20T21:57:33.590Z,74.94
2023-05-20T21:59:55.051Z,73.78
2023-05-20T22:02:17.588Z,73.22
2023-05-20T22:04:39.076Z,74.50
2023-05-20T22:07:00.759Z,73.64
2023-05-20T22:09:22.516Z,73.27
2023-05-20T22:11:45.227Z,74.12
2023-05-20T22:14:06.702Z,73.80
2023-05-20T22:16:28.879Z,72.99
2023-05-20T22:18:50.461Z,72.47
2023-05-20T22:21:12.602Z,72.62
2023-05-20T22:23:34.118Z,72.44
2023-05-20T22:25:56.265Z,72.38
2023-05-20T22:28:17.852Z,73.07
2023-05-20T22:30:39.311Z,74.47
2023-05-20T22:33:00.812Z,74.52
2023-05-20T22:35:23.763Z,74.35
2023-05-20T22:37:45.288Z,74.01
2023-05-20T22:40:07.750Z,74.74
2023-05-20T22:42:29.247Z,74.59
2023-05-20T22:44:50.740Z,75.05
2023-05-20T22:47:12.283Z,74.85
2023-05-20T22:49:33.798Z,74.74
2023-05-20T22:51:55.280Z,75.09
2023-05-20T22:54:17.454Z,76.91
2023-05-20T22:56:38.944Z,75.84
2023-05-20T22:59:00.772Z,77.11
2023-05-20T23:01:22.302Z,77.12
2023-05-20T23:03:46.880Z,76.21
2023-05-20T23:06:08.351Z,76.17
2023-05-20T23:08:29.958Z,76.58
2023-05-20T23:10:51.499Z,77.28
2023-05-20T23:13:13.073Z,76.65
2023-05-20T23:15:34.850Z,76.28
2023-05-20T23:17:56.610Z,76.37
2023-05-20T23:20:19.769Z,76.87
2023-05-20T23:22:41.335Z,77.97
2023-05-20T23:25:03.070Z,76.95
2023-05-20T23:27:24.502Z,76.46
2023-05-20T23:29:46.023Z,76.45
2023-05-20T23:32:07.635Z,76.06
2023-05-20T23:34:30.837Z,76.14
2023-05-20T23:36:52.899Z,77.63
2023-05-20T23:39:16.254Z,77.14
2023-05-20T23:41:39.590Z,76.34
2023-05-20T23:44:03.856Z,75.87
2023-05-20T23:46:25.758Z,76.06
2023-05-20T23:48:49.949Z,76.01
2023-05-20T23:51:13.551Z,76.08
2023-05-20T23:53:35.033Z,76.25
2023-05-20T23:55:56.487Z,76.55
2023-05-20T23:58:18.142Z,77.21
